createdAt,value
2022-08-28T00:00:59.530Z,101751.66
2022-08-28T00:02:01.481Z,101743.38
2022-08-28T00:03:04.672Z,101743.09
2022-08-28T00:04:07.659Z,101756.41
2022-08-28T00:05:11.564Z,101763.91
2022-08-28T00:06:13.676Z,101749.38
2022-08-28T00:07:15.497Z,101762.41
2022-08-28T00:08:18.011Z,101752.38
2022-08-28T00:09:19.794Z,101762.41
2022-08-28T00:10:22.546Z,101762.41
2022-08-28T00:11:24.708Z,101762.41
2022-08-28T00:12:27.213Z,101763.41
2022-08-28T00:13:29.159Z,101768.84
2022-08-28T00:14:31.351Z,101770.75
2022-08-28T00:15:37.476Z,101764.81
2022-08-28T00:16:39.329Z,101767.16
2022-08-28T00:17:42.064Z,101758.75
2022-08-28T00:18:44.429Z,101760.25
2022-08-28T00:19:49.101Z,101756.88
2022-08-28T00:20:52.232Z,101767.53
2022-08-28T00:21:54.779Z,101757.69
2022-08-28T00:22:56.936Z,101768.78
2022-08-28T00:24:00.299Z,101763.50
2022-08-28T00:25:02.152Z,101760.63
2022-08-28T00:26:04.087Z,101763.50
2022-08-28T00:27:26.833Z,101762.69
2022-08-28T00:28:30.014Z,101772.81
2022-08-28T00:29:32.396Z,101762.47
2022-08-28T00:30:44.266Z,101770.63
2022-08-28T00:31:46.428Z,101762.31
2022-08-28T00:32:49.211Z,101773.56
2022-08-28T00:33:51.040Z,101765.56
2022-08-28T00:34:52.998Z,101763.88
2022-08-28T00:35:56.635Z,101757.78
2022-08-28T00:36:58.460Z,101763.22
2022-08-28T00:38:00.919Z,101754.97
2022-08-28T00:39:04.551Z,101762.56
2022-08-28T00:40:09.156Z,101760.88
2022-08-28T00:41:11.223Z,101762.94
2022-08-28T00:42:13.946Z,101767.34
2022-08-28T00:43:38.590Z,101766.81
2022-08-28T00:44:40.803Z,101763.88
2022-08-28T00:45:42.633Z,101761.91
2022-08-28T00:46:47.307Z,101767.34
2022-08-28T00:47:49.708Z,101763.31
2022-08-28T00:48:51.590Z,101762.28
2022-08-28T00:49:56.027Z,101767.44
2022-08-28T00:51:16.694Z,101766.84
2022-08-28T00:52:20.374Z,101766.31
2022-08-28T00:53:25.307Z,101762.94
2022-08-28T00:54:34.131Z,101762.00
2022-08-28T00:55:35.922Z,101768.75
2022-08-28T00:56:39.973Z,101771.84
2022-08-28T00:57:49.183Z,101774.34
2022-08-28T00:58:52.715Z,101776.25
2022-08-28T00:59:54.778Z,101780.81
2022-08-28T01:00:56.586Z,101776.41
2022-08-28T01:01:59.543Z,101772.22
2022-08-28T01:03:02.248Z,101775.75
2022-08-28T01:04:06.312Z,101774.06
2022-08-28T01:05:09.859Z,101774.25
2022-08-28T01:06:14.910Z,101779.69
2022-08-28T01:07:17.430Z,101770.88
2022-08-28T01:08:20.206Z,101776.31
2022-08-28T01:09:24.679Z,101777.16
2022-08-28T01:10:29.072Z,101777.34
2022-08-28T01:11:31.651Z,101775.38
2022-08-28T01:12:34.335Z,101783.59
2022-08-28T01:13:39.790Z,101781.25
2022-08-28T01:14:46.016Z,101773.84
2022-08-28T01:15:50.011Z,101782.78
2022-08-28T01:16:55.635Z,101783.59
2022-08-28T01:18:07.904Z,101780.22
2022-08-28T01:19:15.019Z,101777.72
2022-08-28T01:20:21.168Z,101782.78
2022-08-28T01:21:37.666Z,101781.91
2022-08-28T01:23:12.684Z,101788.31
2022-08-28T01:24:17.195Z,101791.88
2022-08-28T01:25:22.390Z,101783.44
2022-08-28T01:26:27.831Z,101766.22
2022-08-28T01:27:30.239Z,101781.81
2022-08-28T01:28:32.096Z,101794.00
2022-08-28T01:29:34.325Z,101785.75
2022-08-28T01:30:36.625Z,101787.25
2022-08-28T01:31:40.705Z,101788.09
2022-08-28T01:32:47.317Z,101793.03
2022-08-28T01:33:49.147Z,101794.38
2022-08-28T01:34:50.936Z,101791.00
2022-08-28T01:35:52.910Z,101780.00
2022-08-28T01:36:54.726Z,101791.16
2022-08-28T01:38:00.954Z,101793.41
2022-08-28T01:39:08.603Z,101796.78
2022-08-28T01:40:13.938Z,101799.31
2022-08-28T01:41:16.743Z,101794.72
2022-08-28T01:42:18.649Z,101794.72
2022-08-28T01:43:24.450Z,101792.56
2022-08-28T01:44:27.704Z,101796.78
2022-08-28T01:45:29.464Z,101786.84
2022-08-28T01:46:31.876Z,101795.06
2022-08-28T01:47:33.715Z,101798.81
2022-08-28T01:48:40.423Z,101797.13
2022-08-28T01:49:42.162Z,101804.25
2022-08-28T01:50:44.659Z,101808.00
2022-08-28T01:51:46.976Z,101811.75
2022-08-28T01:52:50.404Z,101807.16
2022-08-28T01:53:53.030Z,101811.75
2022-08-28T01:54:54.815Z,101818.19
2022-08-28T01:55:59.116Z,101814.66
2022-08-28T01:57:00.887Z,101811.94
2022-08-28T01:58:05.677Z,101814.81
2022-08-28T01:59:10.677Z,101809.38
2022-08-28T02:00:14.228Z,101794.16
2022-08-28T02:01:19.598Z,101812.09
2022-08-28T02:02:22.272Z,101813.78
2022-08-28T02:03:24.367Z,101817.53
2022-08-28T02:04:31.673Z,101812.09
2022-08-28T02:05:35.230Z,101797.75
2022-08-28T02:06:38.123Z,101814.00
2022-08-28T02:07:40.127Z,101822.13
2022-08-28T02:08:42.434Z,101813.66
2022-08-28T02:09:44.317Z,101818.75
2022-08-28T02:10:47.451Z,101817.41
2022-08-28T02:11:49.271Z,101817.06
2022-08-28T02:12:59.287Z,101810.81
2022-08-28T02:14:01.674Z,101819.59
2022-08-28T02:15:05.099Z,101824.34
2022-08-28T02:16:09.856Z,101819.91
2022-08-28T02:17:12.152Z,101827.06
2022-08-28T02:18:14.550Z,101828.25
2022-08-28T02:19:16.608Z,101824.69
2022-08-28T02:20:19.094Z,101825.72
2022-08-28T02:21:21.123Z,101822.19
2022-08-28T02:22:22.874Z,101818.59
2022-08-28T02:23:24.630Z,101812.19
2022-08-28T02:24:26.634Z,101821.31
2022-08-28T02:25:28.990Z,101819.63
2022-08-28T02:26:31.966Z,101816.59
2022-08-28T02:27:35.753Z,101821.50
2022-08-28T02:28:37.950Z,101821.84
2022-08-28T02:29:39.802Z,101824.38
2022-08-28T02:30:41.653Z,101815.94
2022-08-28T02:31:43.475Z,101818.97
2022-08-28T02:32:46.553Z,101795.69
2022-08-28T02:33:48.464Z,101822.69
2022-08-28T02:34:50.218Z,101822.69
2022-08-28T02:35:52.789Z,101828.28
2022-08-28T02:36:54.874Z,101814.63
2022-08-28T02:37:57.125Z,101821.19
2022-08-28T02:39:02.483Z,101823.72
2022-08-28T02:40:04.855Z,101819.84
2022-08-28T02:41:07.837Z,101823.06
2022-08-28T02:42:09.594Z,101822.19
2022-08-28T02:43:11.344Z,101824.63
2022-08-28T02:44:13.186Z,101826.81
2022-08-28T02:45:15.525Z,101827.16
2022-08-28T02:46:17.340Z,101824.25
2022-08-28T02:47:19.402Z,101828.66
2022-08-28T02:48:21.419Z,101824.25
2022-08-28T02:49:24.124Z,101829.69
2022-08-28T02:50:25.963Z,101823.44
2022-08-28T02:51:31.367Z,101828.84
2022-08-28T02:52:34.915Z,101830.53
2022-08-28T02:53:37.038Z,101832.22
2022-08-28T02:54:40.423Z,101829.88
2022-08-28T02:55:42.286Z,101826.13
2022-08-28T02:56:44.096Z,101831.72
2022-08-28T02:57:47.538Z,101835.47
2022-08-28T02:58:49.335Z,101823.47
2022-08-28T02:59:51.139Z,101824.63
2022-08-28T03:00:54.463Z,101830.25
2022-08-28T03:01:56.247Z,101831.94
2022-08-28T03:02:58.050Z,101809.59
2022-08-28T03:04:03.139Z,101825.84
2022-08-28T03:05:05.655Z,101827.53
2022-08-28T03:06:08.240Z,101811.28
2022-08-28T03:07:12.702Z,101827.53
2022-08-28T03:08:14.590Z,101826.66
2022-08-28T03:09:16.485Z,101831.25
2022-08-28T03:10:18.806Z,101824.16
2022-08-28T03:11:20.623Z,101824.97
2022-08-28T03:12:25.951Z,101822.47
2022-08-28T03:13:28.300Z,101829.56
2022-08-28T03:14:31.021Z,101829.56
2022-08-28T03:15:32.811Z,101830.41
2022-08-28T03:16:34.710Z,101830.59
2022-08-28T03:17:37.044Z,101829.75
2022-08-28T03:18:38.960Z,101831.63
2022-08-28T03:19:40.712Z,101828.94
2022-08-28T03:20:42.525Z,101839.78
2022-08-28T03:21:44.334Z,101835.38
2022-08-28T03:23:04.577Z,101834.50
2022-08-28T03:24:06.659Z,101839.22
2022-08-28T03:25:09.437Z,101827.88
2022-08-28T03:26:16.935Z,101831.63
2022-08-28T03:27:18.726Z,101831.63
2022-08-28T03:28:20.560Z,101829.94
2022-08-28T03:29:22.311Z,101821.81
2022-08-28T03:30:24.595Z,101830.97
2022-08-28T03:31:28.775Z,101831.13
2022-08-28T03:32:31.842Z,101821.50
2022-08-28T03:33:35.049Z,101820.78
2022-08-28T03:34:36.883Z,101824.00
2022-08-28T03:35:38.798Z,101829.44
2022-08-28T03:36:40.647Z,101833.00
2022-08-28T03:37:42.880Z,101838.59
2022-08-28T03:38:44.721Z,101831.31
2022-08-28T03:39:46.915Z,101831.50
2022-08-28T03:40:48.834Z,101830.63
2022-08-28T03:41:51.621Z,101830.63
2022-08-28T03:42:53.808Z,101822.53
2022-08-28T03:43:58.113Z,101820.13
2022-08-28T03:44:59.952Z,101830.63
2022-08-28T03:46:03.816Z,101827.91
2022-08-28T03:47:06.018Z,101830.63
2022-08-28T03:48:08.326Z,101830.63
2022-08-28T03:49:11.105Z,101833.53
2022-08-28T03:50:14.413Z,101827.25
2022-08-28T03:51:22.442Z,101825.56
2022-08-28T03:52:31.681Z,101828.59
2022-08-28T03:53:33.415Z,101829.97
2022-08-28T03:54:35.239Z,101839.78
2022-08-28T03:55:37.046Z,101816.44
2022-08-28T03:56:42.134Z,101826.28
2022-08-28T03:57:44.100Z,101820.84
2022-08-28T03:58:45.839Z,101833.91
2022-08-28T03:59:49.626Z,101829.66
2022-08-28T04:00:51.467Z,101828.63
2022-08-28T04:01:53.245Z,101833.03
2022-08-28T04:02:55.140Z,101833.22
2022-08-28T04:03:57.083Z,101829.66
2022-08-28T04:04:58.891Z,101816.81
2022-08-28T04:06:01.019Z,101836.97
2022-08-28T04:07:02.854Z,101839.69
2022-08-28T04:08:04.663Z,101838.00
2022-08-28T04:09:06.876Z,101827.00
2022-08-28T04:10:09.112Z,101843.59
2022-08-28T04:11:10.979Z,101833.09
2022-08-28T04:12:13.146Z,101836.47
2022-08-28T04:13:17.436Z,101844.59
2022-08-28T04:14:19.342Z,101833.75
2022-08-28T04:15:21.379Z,101834.78
2022-08-28T04:16:23.192Z,101834.09
2022-08-28T04:17:25.655Z,101824.28
2022-08-28T04:18:28.346Z,101830.38
2022-08-28T04:19:30.421Z,101825.81
2022-08-28T04:20:32.483Z,101839.53
2022-08-28T04:21:34.310Z,101828.69
2022-08-28T04:22:37.250Z,101835.13
2022-08-28T04:23:43.247Z,101832.41
2022-08-28T04:24:45.018Z,101825.66
2022-08-28T04:25:46.780Z,101821.41
2022-08-28T04:26:48.783Z,101837.84
2022-08-28T04:27:51.452Z,101834.47
2022-08-28T04:28:55.135Z,101833.44
2022-08-28T04:29:57.987Z,101837.03
2022-08-28T04:31:00.109Z,101838.03
2022-08-28T04:32:02.665Z,101826.00
2022-08-28T04:33:06.250Z,101840.75
2022-08-28T04:34:09.266Z,101840.91
2022-08-28T04:35:12.941Z,101836.50
2022-08-28T04:36:17.337Z,101838.41
2022-08-28T04:37:19.154Z,101838.19
2022-08-28T04:38:21.049Z,101840.09
2022-08-28T04:39:22.870Z,101840.25
2022-08-28T04:40:24.781Z,101846.53
2022-08-28T04:41:27.812Z,101846.53
2022-08-28T04:42:29.575Z,101831.28
2022-08-28T04:43:31.505Z,101839.28
2022-08-28T04:44:33.411Z,101838.41
2022-08-28T04:45:43.544Z,101861.97
2022-08-28T04:46:45.439Z,101853.66
2022-08-28T04:47:50.208Z,101847.38
2022-08-28T04:48:52.256Z,101853.81
2022-08-28T04:49:54.595Z,101852.13
2022-08-28T04:50:56.522Z,101855.19
2022-08-28T04:51:58.354Z,101865.03
2022-08-28T04:53:00.303Z,101859.41
2022-08-28T04:54:03.582Z,101867.75
2022-08-28T04:55:05.818Z,101857.59
2022-08-28T04:56:10.455Z,101852.84
2022-08-28T04:57:12.199Z,101851.25
2022-08-28T04:58:15.232Z,101861.44
2022-08-28T04:59:17.044Z,101860.63
2022-08-28T05:00:18.975Z,101865.03
2022-08-28T05:01:27.029Z,101862.47
2022-08-28T05:02:29.801Z,101864.00
2022-08-28T05:03:32.472Z,101866.03
2022-08-28T05:04:34.946Z,101868.56
2022-08-28T05:05:42.070Z,101873.16
2022-08-28T05:06:46.420Z,101870.44
2022-08-28T05:07:48.368Z,101875.69
2022-08-28T05:08:50.271Z,101874.00
2022-08-28T05:09:54.795Z,101865.19
2022-08-28T05:10:58.059Z,101873.16
2022-08-28T05:12:04.026Z,101866.03
2022-08-28T05:13:06.798Z,101866.03
2022-08-28T05:14:12.801Z,101867.75
2022-08-28T05:15:17.811Z,101872.81
2022-08-28T05:16:21.191Z,101869.44
2022-08-28T05:17:23.102Z,101867.53
2022-08-28T05:18:25.582Z,101867.75
2022-08-28T05:19:28.215Z,101865.38
2022-08-28T05:20:29.983Z,101866.03
2022-08-28T05:21:31.814Z,101863.34
2022-08-28T05:22:33.944Z,101869.59
2022-08-28T05:23:35.743Z,101859.28
2022-08-28T05:24:38.144Z,101867.91
2022-08-28T05:25:44.934Z,101863.50
2022-08-28T05:26:48.257Z,101857.59
2022-08-28T05:27:51.648Z,101869.78
2022-08-28T05:28:54.633Z,101875.22
2022-08-28T05:30:01.582Z,101876.03
2022-08-28T05:31:23.857Z,101876.19
2022-08-28T05:32:25.702Z,101878.06
2022-08-28T05:33:27.811Z,101881.97
2022-08-28T05:34:29.670Z,101874.19
2022-08-28T05:35:39.448Z,101885.19
2022-08-28T05:36:41.639Z,101883.00
2022-08-28T05:37:43.398Z,101880.63
2022-08-28T05:38:45.619Z,101868.09
2022-08-28T05:39:47.503Z,101889.78
2022-08-28T05:40:49.566Z,101876.22
2022-08-28T05:41:51.995Z,101881.81
2022-08-28T05:42:53.814Z,101888.09
2022-08-28T05:44:01.257Z,101890.16
2022-08-28T05:45:03.092Z,101889.78
2022-08-28T05:46:10.618Z,101890.16
2022-08-28T05:47:13.160Z,101879.97
2022-08-28T05:48:16.390Z,101888.09
2022-08-28T05:49:19.628Z,101878.28
2022-08-28T05:50:21.647Z,101879.28
2022-08-28T05:51:26.636Z,101886.56
2022-08-28T05:52:29.986Z,101877.94
2022-08-28T05:53:31.925Z,101879.28
2022-08-28T05:54:34.194Z,101883.84
2022-08-28T05:55:40.621Z,101881.34
2022-08-28T05:56:44.764Z,101888.47
2022-08-28T05:57:46.618Z,101883.84
2022-08-28T05:58:48.645Z,101876.22
2022-08-28T05:59:50.990Z,101883.19
2022-08-28T06:00:52.832Z,101886.75
2022-08-28T06:01:54.624Z,101876.94
2022-08-28T06:02:56.391Z,101885.06
2022-08-28T06:04:02.178Z,101881.50
2022-08-28T06:05:04.300Z,101890.50
2022-08-28T06:06:06.972Z,101885.06
2022-08-28T06:07:12.141Z,101891.31
2022-08-28T06:08:14.227Z,101894.19
2022-08-28T06:09:26.579Z,101887.78
2022-08-28T06:10:30.672Z,101887.25
2022-08-28T06:11:32.846Z,101887.59
2022-08-28T06:12:34.617Z,101893.53
2022-08-28T06:13:37.692Z,101892.66
2022-08-28T06:14:40.577Z,101885.19
2022-08-28T06:15:44.442Z,101885.38
2022-08-28T06:16:49.813Z,101885.88
2022-08-28T06:17:51.782Z,101899.94
2022-08-28T06:18:53.852Z,101891.13
2022-08-28T06:19:55.710Z,101906.69
2022-08-28T06:21:01.851Z,101900.09
2022-08-28T06:22:07.316Z,101880.59
2022-08-28T06:23:10.875Z,101899.19
2022-08-28T06:24:13.743Z,101901.53
2022-08-28T06:25:15.794Z,101902.22
2022-08-28T06:26:17.910Z,101885.94
2022-08-28T06:27:19.754Z,101882.69
2022-08-28T06:28:24.885Z,101889.66
2022-08-28T06:29:27.884Z,101896.41
2022-08-28T06:30:29.711Z,101893.34
2022-08-28T06:31:33.453Z,101892.97
2022-08-28T06:32:35.573Z,101894.47
2022-08-28T06:33:37.868Z,101893.28
2022-08-28T06:34:39.794Z,101898.38
2022-08-28T06:35:46.457Z,101896.31
2022-08-28T06:36:53.120Z,101890.88
2022-08-28T06:37:55.703Z,101900.91
2022-08-28T06:39:00.147Z,101890.84
2022-08-28T06:40:02.150Z,101900.34
2022-08-28T06:41:11.376Z,101898.47
2022-08-28T06:42:13.239Z,101894.06
2022-08-28T06:43:17.132Z,101895.03
2022-08-28T06:44:20.906Z,101894.88
2022-08-28T06:45:22.807Z,101889.25
2022-08-28T06:46:25.216Z,101894.50
2022-08-28T06:47:27.003Z,101895.19
2022-08-28T06:48:29.109Z,101891.44
2022-08-28T06:49:30.859Z,101893.13
2022-08-28T06:50:32.711Z,101891.22
2022-08-28T06:51:35.712Z,101881.97
2022-08-28T06:52:37.927Z,101898.00
2022-08-28T06:53:45.272Z,101888.81
2022-08-28T06:54:55.704Z,101896.59
2022-08-28T06:56:09.199Z,101900.84
2022-08-28T06:57:10.950Z,101897.75
2022-08-28T06:58:13.392Z,101894.22
2022-08-28T06:59:15.263Z,101886.59
2022-08-28T07:00:17.197Z,101888.09
2022-08-28T07:01:22.962Z,101885.28
2022-08-28T07:02:28.257Z,101898.44
2022-08-28T07:03:30.568Z,101901.13
2022-08-28T07:04:32.412Z,101889.97
2022-08-28T07:05:34.897Z,101891.66
2022-08-28T07:06:39.966Z,101902.84
2022-08-28T07:07:41.798Z,101905.19
2022-08-28T07:08:44.683Z,101905.53
2022-08-28T07:09:47.673Z,101910.81
2022-08-28T07:10:49.483Z,101909.78
2022-08-28T07:11:51.805Z,101907.06
2022-08-28T07:12:53.608Z,101899.75
2022-08-28T07:13:56.943Z,101909.78
2022-08-28T07:14:58.852Z,101900.59
2022-08-28T07:16:00.750Z,101905.03
2022-08-28T07:17:02.634Z,101906.03
2022-08-28T07:18:04.663Z,101909.59
2022-08-28T07:19:08.641Z,101910.63
2022-08-28T07:20:12.736Z,101903.13
2022-08-28T07:21:14.605Z,101904.34
2022-08-28T07:22:16.423Z,101910.44
2022-08-28T07:23:18.163Z,101903.13
2022-08-28T07:24:20.268Z,101890.63
2022-08-28T07:25:22.091Z,101905.84
2022-08-28T07:26:26.122Z,101912.31
2022-08-28T07:27:27.891Z,101896.72
2022-08-28T07:28:29.680Z,101915.03
2022-08-28T07:29:31.516Z,101917.75
2022-08-28T07:30:33.279Z,101906.41
2022-08-28T07:31:35.238Z,101916.72
2022-08-28T07:32:37.080Z,101913.34
2022-08-28T07:33:40.262Z,101910.63
2022-08-28T07:34:42.250Z,101912.31
2022-08-28T07:35:44.521Z,101912.31
2022-08-28T07:36:46.851Z,101918.59
2022-08-28T07:37:49.215Z,101915.88
2022-08-28T07:38:51.531Z,101880.00
2022-08-28T07:39:55.709Z,101915.69
2022-08-28T07:40:57.708Z,101914.00
2022-08-28T07:41:59.468Z,101919.44
2022-08-28T07:43:19.681Z,101919.44
2022-08-28T07:44:40.051Z,101905.84
2022-08-28T07:45:43.148Z,101910.09
2022-08-28T07:46:45.936Z,101914.50
2022-08-28T07:47:47.819Z,101912.31
2022-08-28T07:48:49.862Z,101902.84
2022-08-28T07:49:53.532Z,101917.56
2022-08-28T07:50:55.392Z,101916.72
2022-08-28T07:51:57.551Z,101917.75
2022-08-28T07:52:59.367Z,101911.28
2022-08-28T07:54:02.894Z,101930.31
2022-08-28T07:55:06.359Z,101911.28
2022-08-28T07:56:08.256Z,101912.16
2022-08-28T07:57:10.395Z,101910.63
2022-08-28T07:58:13.858Z,101906.78
2022-08-28T07:59:19.096Z,101915.69
2022-08-28T08:00:21.546Z,101911.94
2022-08-28T08:01:23.497Z,101912.16
2022-08-28T08:02:25.495Z,101911.13
2022-08-28T08:03:30.753Z,101907.25
2022-08-28T08:04:32.908Z,101910.63
2022-08-28T08:05:34.705Z,101914.66
2022-08-28T08:06:37.608Z,101907.25
2022-08-28T08:07:43.886Z,101910.25
2022-08-28T08:08:48.900Z,101919.94
2022-08-28T08:09:50.727Z,101910.91
2022-08-28T08:11:16.685Z,101910.91
2022-08-28T08:12:19.183Z,101910.19
2022-08-28T08:13:20.923Z,101913.28
2022-08-28T08:14:23.518Z,101911.94
2022-08-28T08:15:29.464Z,101910.09
2022-08-28T08:16:35.972Z,101908.56
2022-08-28T08:17:38.696Z,101913.16
2022-08-28T08:18:41.819Z,101909.22
2022-08-28T08:19:43.583Z,101917.38
2022-08-28T08:20:45.471Z,101906.88
2022-08-28T08:21:53.384Z,101907.53
2022-08-28T08:22:57.243Z,101916.34
2022-08-28T08:23:59.244Z,101900.25
2022-08-28T08:25:03.793Z,101905.69
2022-08-28T08:26:07.902Z,101910.25
2022-08-28T08:27:10.669Z,101894.31
2022-08-28T08:28:12.697Z,101907.38
2022-08-28T08:29:15.596Z,101906.03
2022-08-28T08:30:17.433Z,101904.81
2022-08-28T08:31:25.184Z,101908.41
2022-08-28T08:32:27.478Z,101903.63
2022-08-28T08:33:29.302Z,101911.28
2022-08-28T08:34:33.134Z,101916.56
2022-08-28T08:35:36.522Z,101907.75
2022-08-28T08:36:39.163Z,101871.03
2022-08-28T08:37:41.089Z,101910.09
2022-08-28T08:38:42.823Z,101911.94
2022-08-28T08:39:44.744Z,101911.13
2022-08-28T08:40:46.568Z,101907.53
2022-08-28T08:41:51.831Z,101903.13
2022-08-28T08:42:57.150Z,101904.81
2022-08-28T08:44:23.908Z,101907.38
2022-08-28T08:45:36.430Z,101903.72
2022-08-28T08:46:53.011Z,101907.47
2022-08-28T08:47:57.379Z,101911.03
2022-08-28T08:49:10.479Z,101914.13
2022-08-28T08:50:19.582Z,101903.41
2022-08-28T08:51:35.578Z,101907.81
2022-08-28T08:52:40.451Z,101912.06
2022-08-28T08:53:59.309Z,101904.09
2022-08-28T08:55:23.443Z,101904.59
2022-08-28T08:56:25.286Z,101907.97
2022-08-28T08:57:39.138Z,101903.72
2022-08-28T08:58:47.410Z,101903.06
2022-08-28T08:59:50.846Z,101911.22
2022-08-28T09:01:01.401Z,101892.91
2022-08-28T09:02:11.413Z,101898.00
2022-08-28T09:03:16.206Z,101890.19
2022-08-28T09:04:39.926Z,101895.09
2022-08-28T09:05:48.428Z,101891.16
2022-08-28T09:06:59.666Z,101902.88
2022-08-28T09:08:03.067Z,101898.47
2022-08-28T09:09:12.459Z,101900.53
2022-08-28T09:10:15.823Z,101894.59
2022-08-28T09:11:35.866Z,101897.25
2022-08-28T09:12:52.915Z,101897.44
2022-08-28T09:14:00.575Z,101901.00
2022-08-28T09:15:11.420Z,101885.06
2022-08-28T09:16:40.475Z,101893.16
2022-08-28T09:18:08.486Z,101888.44
2022-08-28T09:19:15.437Z,101895.03
2022-08-28T09:20:32.333Z,101896.25
2022-08-28T09:21:41.411Z,101893.53
2022-08-28T09:22:47.543Z,101899.97
2022-08-28T09:23:53.370Z,101902.22
2022-08-28T09:24:55.500Z,101900.34
2022-08-28T09:26:12.427Z,101889.84
2022-08-28T09:27:32.666Z,101894.38
2022-08-28T09:28:40.823Z,101889.09
2022-08-28T09:29:43.412Z,101901.88
2022-08-28T09:30:54.684Z,101890.31
2022-08-28T09:31:57.767Z,101905.41
2022-08-28T09:33:01.426Z,101891.53
2022-08-28T09:34:25.838Z,101886.09
2022-08-28T09:35:30.627Z,101897.25
2022-08-28T09:36:37.706Z,101899.97
2022-08-28T09:37:41.460Z,101893.88
2022-08-28T09:38:43.259Z,101896.59
2022-08-28T09:39:48.771Z,101903.06
2022-08-28T09:41:25.353Z,101900.34
2022-08-28T09:42:45.367Z,101897.56
2022-08-28T09:43:47.196Z,101895.72
2022-08-28T09:45:09.385Z,101895.88
2022-08-28T09:46:29.713Z,101885.38
2022-08-28T09:47:57.494Z,101891.81
2022-08-28T09:49:14.303Z,101887.19
2022-08-28T09:50:29.875Z,101898.44
2022-08-28T09:51:31.698Z,101891.28
2022-08-28T09:52:33.573Z,101889.09
2022-08-28T09:53:59.559Z,101889.78
2022-08-28T09:55:01.448Z,101891.47
2022-08-28T09:56:11.100Z,101892.03
2022-08-28T09:57:12.858Z,101892.84
2022-08-28T09:58:15.651Z,101884.69
2022-08-28T09:59:21.139Z,101894.91
2022-08-28T10:00:23.109Z,101883.88
2022-08-28T10:01:39.519Z,101884.03
2022-08-28T10:02:50.262Z,101881.97
2022-08-28T10:04:04.505Z,101884.53
2022-08-28T10:05:16.418Z,101891.47
2022-08-28T10:06:33.055Z,101854.22
2022-08-28T10:08:01.400Z,101889.91
2022-08-28T10:09:22.149Z,101887.19
2022-08-28T10:10:31.027Z,101889.91
2022-08-28T10:11:51.647Z,101889.09
2022-08-28T10:13:11.746Z,101891.81
2022-08-28T10:14:35.466Z,101883.94
2022-08-28T10:16:12.123Z,101882.72
2022-08-28T10:17:29.301Z,101889.38
2022-08-28T10:18:56.487Z,101891.06
2022-08-28T10:20:59.923Z,101872.97
2022-08-28T10:22:36.755Z,101884.03
2022-08-28T10:23:49.922Z,101885.91
2022-08-28T10:25:09.971Z,101883.75
2022-08-28T10:26:11.783Z,101891.06
2022-08-28T10:27:53.275Z,101888.53
2022-08-28T10:29:03.258Z,101887.31
2022-08-28T10:30:13.178Z,101875.34
2022-08-28T10:31:55.976Z,101881.59
2022-08-28T10:33:07.575Z,101884.22
2022-08-28T10:34:27.775Z,101903.63
2022-08-28T10:35:44.032Z,101887.03
2022-08-28T10:37:02.123Z,101889.19
2022-08-28T10:38:18.399Z,101851.13
2022-08-28T10:39:33.385Z,101883.56
2022-08-28T10:40:55.696Z,101879.81
2022-08-28T10:42:05.976Z,101884.59
2022-08-28T10:43:48.436Z,101885.53
2022-08-28T10:44:57.136Z,101893.22
2022-08-28T10:46:12.351Z,101895.28
2022-08-28T10:47:15.171Z,101891.72
2022-08-28T10:48:25.355Z,101894.81
2022-08-28T10:49:37.066Z,101887.69
2022-08-28T10:50:50.983Z,101887.69
2022-08-28T10:52:10.695Z,101895.66
2022-08-28T10:53:21.371Z,101899.03
2022-08-28T10:54:39.676Z,101892.75
2022-08-28T10:55:59.359Z,101895.28
2022-08-28T10:57:11.230Z,101897.81
2022-08-28T10:58:24.992Z,101894.44
2022-08-28T10:59:32.427Z,101890.69
2022-08-28T11:00:37.786Z,101901.56
2022-08-28T11:01:42.960Z,101889.09
2022-08-28T11:02:50.057Z,101894.81
2022-08-28T11:03:52.395Z,101900.06
2022-08-28T11:04:58.497Z,101880.94
2022-08-28T11:06:08.483Z,101891.44
2022-08-28T11:07:15.291Z,101884.78
2022-08-28T11:08:35.924Z,101877.75
2022-08-28T11:09:46.263Z,101889.47
2022-08-28T11:10:53.327Z,101893.22
2022-08-28T11:12:07.099Z,101884.03
2022-08-28T11:13:10.339Z,101888.63
2022-08-28T11:14:47.652Z,101889.97
2022-08-28T11:15:53.442Z,101879.44
2022-08-28T11:16:59.653Z,101887.41
2022-08-28T11:18:42.594Z,101896.72
2022-08-28T11:20:09.554Z,101890.53
2022-08-28T11:21:24.258Z,101900.75
2022-08-28T11:22:38.097Z,101899.25
2022-08-28T11:23:49.019Z,101883.69
2022-08-28T11:25:09.805Z,101898.78
2022-08-28T11:26:23.431Z,101898.78
2022-08-28T11:27:38.144Z,101900.47
2022-08-28T11:28:39.899Z,101904.22
2022-08-28T11:30:01.998Z,101905.91
2022-08-28T11:31:06.845Z,101900.84
2022-08-28T11:32:54.979Z,101898.78
2022-08-28T11:33:59.146Z,101903.47
2022-08-28T11:35:22.698Z,101891.00
2022-08-28T11:36:26.495Z,101897.38
2022-08-28T11:37:44.447Z,101885.00
2022-08-28T11:38:46.570Z,101895.03
2022-08-28T11:39:48.453Z,101881.50
2022-08-28T11:40:55.675Z,101894.06
2022-08-28T11:42:14.005Z,101898.97
2022-08-28T11:43:16.576Z,101900.66
2022-08-28T11:44:27.001Z,101895.56
2022-08-28T11:46:01.264Z,101885.66
2022-08-28T11:47:34.001Z,101894.09
2022-08-28T11:48:36.483Z,101901.41
2022-08-28T11:49:42.210Z,101896.91
2022-08-28T11:51:02.344Z,101896.72
2022-08-28T11:52:04.124Z,101892.13
2022-08-28T11:53:12.157Z,101895.41
2022-08-28T11:54:32.646Z,101881.50
2022-08-28T11:55:50.851Z,101897.56
2022-08-28T11:57:14.804Z,101889.88
2022-08-28T11:58:33.559Z,101895.50
2022-08-28T11:59:50.652Z,101893.63
2022-08-28T12:01:09.086Z,101897.19
2022-08-28T12:02:43.240Z,101889.50
2022-08-28T12:03:58.770Z,101898.53
2022-08-28T12:05:01.279Z,101888.84
2022-08-28T12:06:04.468Z,101899.25
2022-08-28T12:07:12.188Z,101899.44
2022-08-28T12:08:46.903Z,101893.44
2022-08-28T12:09:50.026Z,101889.69
2022-08-28T12:10:54.576Z,101883.78
2022-08-28T12:11:59.899Z,101885.00
2022-08-28T12:13:10.200Z,101885.84
2022-08-28T12:14:33.437Z,101886.03
2022-08-28T12:15:35.374Z,101885.09
2022-08-28T12:16:55.857Z,101881.34
2022-08-28T12:18:02.130Z,101879.00
2022-08-28T12:19:04.817Z,101881.72
2022-08-28T12:20:12.247Z,101883.78
2022-08-28T12:21:17.946Z,101887.53
2022-08-28T12:22:22.945Z,101890.06
2022-08-28T12:23:38.142Z,101884.16
2022-08-28T12:24:54.650Z,101894.28
2022-08-28T12:26:07.035Z,101892.22
2022-08-28T12:27:10.687Z,101883.13
2022-08-28T12:28:21.657Z,101878.72
2022-08-28T12:29:38.630Z,101892.22
2022-08-28T12:30:56.453Z,101893.91
2022-08-28T12:32:41.786Z,101890.66
2022-08-28T12:34:12.395Z,101896.84
2022-08-28T12:35:30.235Z,101895.72
2022-08-28T12:36:32.398Z,101895.88
2022-08-28T12:37:52.422Z,101892.06
2022-08-28T12:38:58.141Z,101896.47